createdAt,value
2023-03-06T00:01:07.968Z,100.00
2023-03-06T00:03:36.001Z,100.00
2023-03-06T00:06:04.253Z,100.00
2023-03-06T00:08:32.200Z,100.00
2023-03-06T00:11:00.850Z,100.00
2023-03-06T00:13:30.763Z,100.00
2023-03-06T00:16:00.599Z,100.00
2023-03-06T00:18:28.703Z,100.00
2023-03-06T00:20:56.606Z,100.00
2023-03-06T00:23:24.641Z,100.00
2023-03-06T00:25:52.595Z,100.00
2023-03-06T00:28:20.536Z,100.00
2023-03-06T00:30:49.104Z,100.00
2023-03-06T00:33:17.020Z,100.00
2023-03-06T00:35:45.188Z,100.00
2023-03-06T00:38:13.305Z,100.00
2023-03-06T00:40:41.227Z,100.00
2023-03-06T00:43:09.338Z,100.00
2023-03-06T00:45:37.437Z,100.00
2023-03-06T00:48:05.856Z,100.00
2023-03-06T00:50:35.755Z,100.00
2023-03-06T00:53:04.498Z,100.00
2023-03-06T00:55:33.631Z,100.00
2023-03-06T00:58:01.829Z,100.00
2023-03-06T01:00:29.804Z,100.00
2023-03-06T01:02:57.820Z,100.00
2023-03-06T01:05:25.870Z,100.00
2023-03-06T01:07:53.872Z,100.00
2023-03-06T01:10:21.910Z,100.00
2023-03-06T01:12:49.825Z,100.00
2023-03-06T01:15:19.804Z,100.00
2023-03-06T01:17:47.860Z,100.00
2023-03-06T01:20:16.880Z,100.00
2023-03-06T01:22:45.009Z,100.00
2023-03-06T01:25:13.404Z,100.00
2023-03-06T01:27:41.488Z,100.00
2023-03-06T01:30:12.445Z,100.00
2023-03-06T01:32:40.693Z,100.00
2023-03-06T01:35:09.296Z,100.00
2023-03-06T01:37:37.387Z,100.00
2023-03-06T01:40:06.265Z,100.00
2023-03-06T01:42:34.490Z,100.00
2023-03-06T01:45:11.479Z,100.00
2023-03-06T01:47:39.452Z,100.00
2023-03-06T01:50:08.541Z,100.00
2023-03-06T01:52:44.806Z,100.00
2023-03-06T01:55:15.248Z,100.00
2023-03-06T01:57:45.376Z,100.00
2023-03-06T02:00:15.609Z,100.00
2023-03-06T02:02:51.933Z,100.00
2023-03-06T02:05:20.136Z,100.00
2023-03-06T02:07:48.255Z,100.00
2023-03-06T02:10:16.404Z,100.00
2023-03-06T02:12:45.577Z,100.00
2023-03-06T02:15:14.858Z,100.00
2023-03-06T02:17:44.367Z,100.00
2023-03-06T02:20:14.602Z,100.00
2023-03-06T02:22:50.232Z,100.00
2023-03-06T02:25:37.958Z,100.00
2023-03-06T02:28:07.290Z,100.00
2023-03-06T02:30:35.560Z,100.00
2023-03-06T02:33:04.126Z,100.00
2023-03-06T02:35:35.517Z,100.00
2023-03-06T02:38:06.554Z,100.00
2023-03-06T02:40:36.946Z,100.00
2023-03-06T02:43:05.427Z,100.00
2023-03-06T02:45:40.939Z,100.00
2023-03-06T02:48:09.986Z,100.00
2023-03-06T02:50:38.226Z,100.00
2023-03-06T02:53:06.717Z,100.00
2023-03-06T02:55:35.088Z,100.00
2023-03-06T02:58:03.508Z,100.00
2023-03-06T03:00:32.174Z,100.00
2023-03-06T03:03:02.578Z,100.00
2023-03-06T03:05:31.603Z,100.00
2023-03-06T03:08:06.006Z,100.00
2023-03-06T03:10:34.603Z,100.00
2023-03-06T03:13:02.672Z,100.00
2023-03-06T03:15:31.031Z,100.00
2023-03-06T03:17:59.042Z,100.00
2023-03-06T03:20:27.021Z,100.00
2023-03-06T03:22:56.036Z,100.00
2023-03-06T03:25:25.215Z,100.00
2023-03-06T03:27:54.722Z,100.00
2023-03-06T03:30:23.211Z,100.00
2023-03-06T03:32:51.217Z,100.00
2023-03-06T03:35:19.195Z,100.00
2023-03-06T03:37:47.682Z,100.00
2023-03-06T03:40:15.855Z,100.00
2023-03-06T03:42:43.876Z,100.00
2023-03-06T03:45:12.345Z,100.00
2023-03-06T03:47:41.768Z,100.00
2023-03-06T03:50:10.766Z,100.00
2023-03-06T03:52:38.943Z,100.00
2023-03-06T03:55:07.798Z,100.00
2023-03-06T03:57:35.890Z,100.00
2023-03-06T04:00:04.215Z,100.00
2023-03-06T04:02:50.934Z,100.00
2023-03-06T04:05:28.108Z,100.00
2023-03-06T04:07:56.384Z,100.00
2023-03-06T04:10:24.364Z,100.00
2023-03-06T04:12:52.759Z,100.00
2023-03-06T04:15:21.010Z,100.00
2023-03-06T04:17:49.331Z,100.00
2023-03-06T04:20:19.791Z,100.00
2023-03-06T04:22:48.083Z,100.00
2023-03-06T04:25:16.633Z,100.00
2023-03-06T04:27:44.921Z,100.00
2023-03-06T04:30:13.443Z,100.00
2023-03-06T04:32:41.949Z,100.00
2023-03-06T04:35:10.750Z,100.00
2023-03-06T04:37:45.178Z,100.00
2023-03-06T04:40:28.324Z,100.00
2023-03-06T04:42:57.632Z,100.00
2023-03-06T04:45:26.647Z,100.00
2023-03-06T04:47:54.896Z,100.00
2023-03-06T04:50:23.259Z,100.00
2023-03-06T04:52:51.761Z,100.00
2023-03-06T04:55:19.950Z,100.00
2023-03-06T04:57:47.920Z,100.00
2023-03-06T05:00:22.878Z,100.00
2023-03-06T05:02:51.088Z,100.00
2023-03-06T05:05:19.276Z,100.00
2023-03-06T05:07:47.275Z,100.00
2023-03-06T05:10:16.708Z,100.00
2023-03-06T05:12:44.672Z,100.00
2023-03-06T05:15:12.932Z,100.00
2023-03-06T05:17:41.176Z,100.00
2023-03-06T05:20:09.973Z,100.00
2023-03-06T05:22:37.966Z,100.00
2023-03-06T05:25:06.632Z,100.00
2023-03-06T05:27:34.766Z,100.00
2023-03-06T05:30:02.766Z,100.00
2023-03-06T05:32:30.923Z,100.00
2023-03-06T05:35:01.026Z,100.00
2023-03-06T05:37:29.070Z,100.00
2023-03-06T05:39:57.364Z,100.00
2023-03-06T05:42:27.542Z,100.00
2023-03-06T05:44:56.773Z,100.00
2023-03-06T05:47:24.857Z,100.00
2023-03-06T05:49:52.778Z,100.00
2023-03-06T05:52:20.929Z,100.00
2023-03-06T05:54:53.403Z,100.00
2023-03-06T05:57:22.788Z,100.00
2023-03-06T05:59:51.327Z,100.00
2023-03-06T06:02:19.542Z,100.00
2023-03-06T06:04:47.837Z,100.00
2023-03-06T06:07:16.184Z,100.00
2023-03-06T06:09:45.815Z,100.00
2023-03-06T06:12:13.974Z,100.00
2023-03-06T06:14:42.037Z,100.00
2023-03-06T06:17:12.753Z,100.00
2023-03-06T06:19:42.225Z,100.00
2023-03-06T06:22:10.208Z,100.00
2023-03-06T06:24:38.216Z,100.00
2023-03-06T06:27:06.374Z,100.00
2023-03-06T06:29:36.015Z,100.00
2023-03-06T06:32:04.280Z,100.00
2023-03-06T06:34:32.327Z,100.00
2023-03-06T06:37:00.264Z,100.00
2023-03-06T06:39:29.629Z,100.00
2023-03-06T06:42:16.085Z,100.00
2023-03-06T06:44:45.516Z,100.00
2023-03-06T06:47:28.911Z,100.00
2023-03-06T06:49:57.160Z,100.00
2023-03-06T06:52:26.684Z,100.00
2023-03-06T06:54:54.858Z,100.00
2023-03-06T06:57:22.894Z,100.00
2023-03-06T06:59:53.352Z,100.00
2023-03-06T07:02:22.012Z,100.00
2023-03-06T07:05:03.039Z,100.00
2023-03-06T07:07:36.687Z,100.00
2023-03-06T07:10:07.949Z,100.00
2023-03-06T07:12:36.053Z,100.00
2023-03-06T07:15:05.407Z,100.00
2023-03-06T07:17:35.156Z,100.00
2023-03-06T07:20:05.025Z,100.00
2023-03-06T07:22:41.572Z,100.00
2023-03-06T07:25:16.706Z,100.00
2023-03-06T07:27:51.107Z,100.00
2023-03-06T07:30:22.664Z,100.00
2023-03-06T07:32:55.764Z,100.00
2023-03-06T07:35:23.967Z,100.00
2023-03-06T07:37:52.436Z,100.00
2023-03-06T07:40:20.927Z,100.00
2023-03-06T07:42:49.323Z,100.00
2023-03-06T07:45:20.162Z,100.00
2023-03-06T07:47:50.476Z,100.00
2023-03-06T07:50:19.021Z,100.00
2023-03-06T07:52:48.112Z,100.00
2023-03-06T07:55:16.186Z,100.00
2023-03-06T07:57:44.882Z,100.00
2023-03-06T08:00:15.017Z,100.00
2023-03-06T08:02:43.425Z,100.00
2023-03-06T08:05:13.876Z,100.00
2023-03-06T08:07:43.224Z,100.00
2023-03-06T08:10:15.626Z,100.00
2023-03-06T08:12:43.749Z,100.00
2023-03-06T08:15:12.435Z,100.00
2023-03-06T08:17:40.646Z,100.00
2023-03-06T08:20:10.770Z,100.00
2023-03-06T08:22:38.901Z,100.00
2023-03-06T08:25:07.433Z,99.47
2023-03-06T08:27:35.580Z,99.87
2023-03-06T08:30:05.939Z,97.94
2023-03-06T08:32:37.315Z,96.23
2023-03-06T08:35:05.675Z,99.63
2023-03-06T08:37:33.725Z,98.76
2023-03-06T08:40:04.785Z,99.93
2023-03-06T08:42:33.138Z,99.16
2023-03-06T08:45:01.154Z,94.64
2023-03-06T08:47:29.228Z,91.62
2023-03-06T08:50:00.523Z,93.36
2023-03-06T08:52:28.850Z,95.24
2023-03-06T08:54:58.131Z,95.42
2023-03-06T08:57:26.362Z,95.53
2023-03-06T08:59:54.438Z,95.93
2023-03-06T09:02:22.587Z,97.02
2023-03-06T09:04:50.783Z,96.90
2023-03-06T09:07:18.793Z,97.49
2023-03-06T09:09:46.844Z,97.87
2023-03-06T09:12:14.817Z,94.88
2023-03-06T09:14:42.791Z,93.32
2023-03-06T09:17:10.794Z,94.00
2023-03-06T09:19:38.888Z,94.50
2023-03-06T09:22:06.951Z,93.77
2023-03-06T09:24:35.189Z,93.66
2023-03-06T09:27:03.440Z,92.32
2023-03-06T09:29:31.472Z,93.80
2023-03-06T09:31:59.437Z,95.28
2023-03-06T09:34:27.827Z,92.72
2023-03-06T09:36:57.676Z,92.21
2023-03-06T09:39:26.478Z,92.90
2023-03-06T09:41:55.292Z,89.48
2023-03-06T09:44:32.785Z,86.45
2023-03-06T09:47:24.116Z,82.08
2023-03-06T09:49:58.636Z,78.79
2023-03-06T09:52:41.486Z,77.32
2023-03-06T09:55:13.066Z,77.53
2023-03-06T09:58:07.161Z,78.16
2023-03-06T10:01:25.304Z,77.20
2023-03-06T10:04:05.273Z,76.68
2023-03-06T10:06:53.425Z,77.77
2023-03-06T10:09:47.468Z,76.09
2023-03-06T10:12:25.876Z,76.31
2023-03-06T10:15:08.528Z,77.21
2023-03-06T10:17:37.971Z,77.41
2023-03-06T10:20:23.150Z,76.04
2023-03-06T10:23:26.619Z,75.82
2023-03-06T10:26:00.206Z,75.77
2023-03-06T10:28:36.377Z,75.13
2023-03-06T10:31:24.113Z,72.57
2023-03-06T10:33:59.363Z,71.91
2023-03-06T10:36:28.413Z,70.86
2023-03-06T10:38:57.727Z,70.51
2023-03-06T10:41:28.187Z,70.39
2023-03-06T10:44:05.489Z,68.43
2023-03-06T10:46:34.622Z,66.71
2023-03-06T10:49:06.340Z,66.80
2023-03-06T10:51:35.895Z,66.61
2023-03-06T10:54:21.853Z,66.86
2023-03-06T10:56:49.822Z,67.19
2023-03-06T10:59:29.503Z,65.48
2023-03-06T11:01:59.156Z,65.74
2023-03-06T11:04:31.913Z,64.60
2023-03-06T11:07:21.993Z,64.37
2023-03-06T11:09:59.354Z,64.70
2023-03-06T11:12:29.288Z,63.36
2023-03-06T11:15:17.946Z,64.09
2023-03-06T11:18:04.383Z,63.94
2023-03-06T11:20:49.917Z,63.58
2023-03-06T11:23:38.604Z,62.72
2023-03-06T11:26:16.018Z,64.41
2023-03-06T11:29:02.423Z,62.51
2023-03-06T11:31:38.632Z,62.01
2023-03-06T11:34:12.766Z,63.09
2023-03-06T11:36:52.093Z,63.41
2023-03-06T11:39:38.377Z,62.55
2023-03-06T11:42:09.208Z,63.54
2023-03-06T11:44:52.299Z,62.29
2023-03-06T11:47:29.732Z,60.84
2023-03-06T11:50:07.066Z,59.72
2023-03-06T11:52:51.198Z,60.06
2023-03-06T11:55:50.377Z,60.26
2023-03-06T11:58:40.364Z,60.63
2023-03-06T12:01:33.014Z,61.06
2023-03-06T12:04:11.973Z,61.38
2023-03-06T12:06:51.903Z,59.19
2023-03-06T12:09:27.655Z,60.08
2023-03-06T12:11:55.639Z,60.43
2023-03-06T12:14:36.477Z,59.36
2023-03-06T12:17:15.604Z,59.34
2023-03-06T12:19:50.437Z,59.82
2023-03-06T12:23:15.456Z,60.54
2023-03-06T12:25:49.147Z,61.41
2023-03-06T12:28:50.501Z,62.25
2023-03-06T12:31:43.094Z,62.69
2023-03-06T12:34:20.239Z,62.97
2023-03-06T12:37:09.650Z,62.79
2023-03-06T12:39:47.405Z,62.53
2023-03-06T12:42:38.825Z,63.40
2023-03-06T12:45:34.148Z,63.25
2023-03-06T12:48:02.188Z,63.42
2023-03-06T12:50:31.536Z,64.06
2023-03-06T12:53:13.613Z,63.99
2023-03-06T12:55:44.250Z,64.23
2023-03-06T12:58:30.946Z,64.81
2023-03-06T13:01:11.488Z,65.23
2023-03-06T13:04:18.249Z,67.43
2023-03-06T13:06:58.365Z,68.41
2023-03-06T13:09:29.418Z,68.88
2023-03-06T13:12:30.051Z,68.81
2023-03-06T13:15:01.603Z,69.51
2023-03-06T13:17:34.752Z,69.50
2023-03-06T13:20:14.817Z,69.50
2023-03-06T13:22:43.796Z,69.97
2023-03-06T13:25:21.118Z,70.78
2023-03-06T13:27:55.179Z,70.08
2023-03-06T13:30:42.529Z,70.13
2023-03-06T13:33:33.179Z,71.44
2023-03-06T13:36:23.307Z,70.93
2023-03-06T13:38:51.786Z,70.46
2023-03-06T13:41:22.769Z,70.53
2023-03-06T13:43:52.393Z,71.05
2023-03-06T13:46:26.244Z,71.20
2023-03-06T13:49:09.573Z,71.96
2023-03-06T13:52:04.545Z,72.47
2023-03-06T13:54:32.527Z,72.78
2023-03-06T13:57:38.312Z,72.35
2023-03-06T14:00:30.328Z,73.05
2023-03-06T14:03:25.398Z,73.63
2023-03-06T14:05:53.497Z,75.24
2023-03-06T14:08:30.982Z,74.27
2023-03-06T14:11:03.203Z,73.88
2023-03-06T14:13:46.634Z,74.82
2023-03-06T14:16:27.016Z,74.72
2023-03-06T14:18:57.034Z,75.49
2023-03-06T14:21:35.513Z,79.35
2023-03-06T14:24:04.468Z,76.44
2023-03-06T14:26:34.078Z,76.73
2023-03-06T14:29:03.132Z,76.05
2023-03-06T14:31:37.611Z,76.64
2023-03-06T14:34:09.247Z,77.21
2023-03-06T14:36:43.588Z,77.01
2023-03-06T14:39:23.447Z,77.62
2023-03-06T14:41:51.555Z,77.61
2023-03-06T14:44:24.352Z,77.48
2023-03-06T14:46:56.269Z,78.40
2023-03-06T14:49:25.641Z,77.56
2023-03-06T14:51:55.567Z,78.01
2023-03-06T14:54:31.851Z,77.57
2023-03-06T14:57:06.844Z,77.60
2023-03-06T14:59:44.789Z,79.52
2023-03-06T15:02:17.914Z,81.24
2023-03-06T15:04:47.874Z,81.51
2023-03-06T15:07:17.985Z,82.73
2023-03-06T15:09:48.982Z,83.67
2023-03-06T15:12:19.996Z,80.86
2023-03-06T15:14:59.305Z,81.52
2023-03-06T15:17:27.252Z,83.13
2023-03-06T15:19:56.846Z,83.57
2023-03-06T15:22:31.988Z,81.70
2023-03-06T15:25:27.951Z,82.71
2023-03-06T15:28:03.383Z,81.10
2023-03-06T15:30:33.694Z,80.18
2023-03-06T15:33:20.003Z,81.08
2023-03-06T15:36:04.219Z,81.24
2023-03-06T15:38:40.127Z,81.80
2023-03-06T15:41:23.964Z,81.19
2023-03-06T15:43:52.046Z,81.48
2023-03-06T15:46:20.140Z,82.93
2023-03-06T15:49:07.323Z,80.37
2023-03-06T15:51:35.512Z,80.14
2023-03-06T15:54:11.820Z,79.70
2023-03-06T15:56:42.590Z,80.00
2023-03-06T15:59:21.683Z,80.45
2023-03-06T16:01:50.161Z,80.80
2023-03-06T16:04:18.810Z,80.43
2023-03-06T16:06:47.065Z,80.25
2023-03-06T16:09:15.490Z,83.09
2023-03-06T16:11:47.512Z,81.29
2023-03-06T16:14:24.209Z,80.89
2023-03-06T16:16:54.414Z,81.57
2023-03-06T16:19:27.418Z,81.79
2023-03-06T16:21:56.747Z,83.62
2023-03-06T16:24:26.429Z,82.49
2023-03-06T16:26:55.087Z,83.91
2023-03-06T16:29:27.167Z,85.75
2023-03-06T16:31:56.568Z,82.66
2023-03-06T16:34:24.742Z,82.96
2023-03-06T16:36:52.817Z,82.88
2023-03-06T16:39:22.158Z,82.62
2023-03-06T16:41:50.279Z,83.72
2023-03-06T16:44:19.160Z,83.71
2023-03-06T16:46:48.380Z,82.73
2023-03-06T16:49:20.700Z,84.27
2023-03-06T16:51:51.394Z,82.77
2023-03-06T16:54:20.140Z,82.51
2023-03-06T16:56:48.261Z,83.14
2023-03-06T16:59:21.441Z,83.25
2023-03-06T17:01:49.392Z,84.51
2023-03-06T17:04:17.409Z,82.98
2023-03-06T17:06:45.431Z,82.89
2023-03-06T17:09:15.398Z,83.35
2023-03-06T17:11:46.903Z,85.31
2023-03-06T17:14:15.063Z,83.87
2023-03-06T17:16:43.235Z,85.06
2023-03-06T17:19:14.530Z,86.57
2023-03-06T17:21:43.470Z,85.02
2023-03-06T17:24:11.893Z,85.31
2023-03-06T17:26:40.390Z,87.07
2023-03-06T17:29:09.884Z,86.54
2023-03-06T17:31:37.964Z,85.96
2023-03-06T17:34:08.057Z,84.81
2023-03-06T17:36:36.108Z,85.42
2023-03-06T17:39:04.537Z,86.93
2023-03-06T17:41:34.316Z,86.31
2023-03-06T17:44:02.346Z,86.46
2023-03-06T17:46:32.307Z,91.38
2023-03-06T17:49:00.781Z,87.97
2023-03-06T17:51:29.056Z,90.42
2023-03-06T17:53:57.593Z,90.86
2023-03-06T17:56:26.118Z,89.02
2023-03-06T17:58:54.157Z,87.84
2023-03-06T18:01:23.899Z,90.08
2023-03-06T18:03:51.950Z,90.87
2023-03-06T18:06:21.175Z,89.59
2023-03-06T18:08:52.247Z,90.52
2023-03-06T18:11:21.178Z,91.69
2023-03-06T18:13:49.236Z,91.43
2023-03-06T18:16:19.207Z,90.49
2023-03-06T18:18:47.481Z,90.40
2023-03-06T18:21:16.948Z,91.94
2023-03-06T18:23:45.060Z,93.63
2023-03-06T18:26:18.854Z,93.58
2023-03-06T18:28:48.756Z,92.52
2023-03-06T18:31:21.414Z,91.31
2023-03-06T18:33:49.588Z,90.81
2023-03-06T18:36:17.862Z,92.02
2023-03-06T18:38:46.055Z,90.92
2023-03-06T18:41:14.107Z,93.85
2023-03-06T18:43:42.189Z,92.77
2023-03-06T18:46:11.010Z,92.86
2023-03-06T18:48:39.112Z,91.38
2023-03-06T18:51:08.781Z,92.85
2023-03-06T18:53:37.149Z,92.78
2023-03-06T18:56:05.494Z,93.50
2023-03-06T18:58:33.526Z,92.37
2023-03-06T19:01:06.582Z,94.30
2023-03-06T19:03:34.808Z,94.28
2023-03-06T19:06:20.679Z,94.71
2023-03-06T19:08:48.816Z,100.00
2023-03-06T19:11:18.162Z,100.00
2023-03-06T19:13:46.080Z,99.59
2023-03-06T19:16:18.798Z,99.70
2023-03-06T19:18:46.927Z,98.97
2023-03-06T19:21:16.931Z,100.00
2023-03-06T19:23:45.082Z,100.00
2023-03-06T19:26:13.082Z,100.00
2023-03-06T19:28:41.799Z,100.00
2023-03-06T19:31:14.114Z,100.00
2023-03-06T19:33:42.900Z,100.00
2023-03-06T19:36:12.537Z,100.00
2023-03-06T19:38:40.871Z,100.00
2023-03-06T19:41:13.887Z,100.00
2023-03-06T19:43:42.509Z,100.00
2023-03-06T19:46:14.120Z,100.00
2023-03-06T19:48:42.619Z,100.00
2023-03-06T19:51:11.385Z,100.00
2023-03-06T19:53:39.948Z,100.00
2023-03-06T19:56:19.382Z,100.00
2023-03-06T19:58:47.611Z,100.00
2023-03-06T20:01:17.878Z,100.00
2023-03-06T20:03:46.467Z,100.00
2023-03-06T20:06:16.482Z,100.00
2023-03-06T20:08:50.759Z,100.00
2023-03-06T20:11:20.787Z,100.00
2023-03-06T20:13:49.159Z,100.00
2023-03-06T20:16:17.671Z,100.00
2023-03-06T20:18:45.776Z,100.00
2023-03-06T20:21:14.203Z,100.00
2023-03-06T20:23:42.784Z,100.00
2023-03-06T20:26:12.831Z,100.00
2023-03-06T20:28:41.407Z,100.00
2023-03-06T20:31:16.611Z,100.00
2023-03-06T20:33:48.989Z,100.00
2023-03-06T20:36:18.981Z,100.00
2023-03-06T20:38:47.267Z,100.00
2023-03-06T20:41:22.665Z,100.00
2023-03-06T20:43:50.633Z,100.00
2023-03-06T20:46:19.199Z,100.00
2023-03-06T20:48:49.140Z,100.00
2023-03-06T20:51:28.821Z,100.00
2023-03-06T20:53:57.090Z,100.00
2023-03-06T20:56:26.830Z,100.00
2023-03-06T20:58:55.211Z,100.00
2023-03-06T21:01:25.456Z,100.00
2023-03-06T21:03:53.763Z,100.00
2023-03-06T21:06:21.920Z,100.00
2023-03-06T21:08:50.135Z,100.00
2023-03-06T21:11:18.505Z,100.00
2023-03-06T21:13:46.529Z,100.00
2023-03-06T21:16:16.741Z,100.00
2023-03-06T21:18:44.846Z,100.00
2023-03-06T21:21:18.601Z,100.00
2023-03-06T21:23:47.407Z,100.00
2023-03-06T21:26:20.190Z,100.00
2023-03-06T21:28:48.145Z,100.00
2023-03-06T21:31:17.280Z,100.00
2023-03-06T21:33:45.516Z,100.00
2023-03-06T21:36:13.624Z,100.00
2023-03-06T21:38:41.556Z,100.00
2023-03-06T21:41:13.719Z,100.00
2023-03-06T21:43:41.889Z,100.00
2023-03-06T21:46:10.522Z,100.00
2023-03-06T21:48:38.626Z,100.00
2023-03-06T21:51:08.359Z,100.00
2023-03-06T21:53:36.613Z,100.00
2023-03-06T21:56:04.963Z,100.00
2023-03-06T21:58:33.078Z,100.00
2023-03-06T22:01:01.083Z,100.00
2023-03-06T22:03:29.124Z,100.00
2023-03-06T22:05:57.120Z,100.00
2023-03-06T22:08:25.248Z,100.00
2023-03-06T22:10:53.619Z,100.00
2023-03-06T22:13:22.381Z,100.00
2023-03-06T22:15:51.828Z,100.00
2023-03-06T22:18:19.787Z,100.00
2023-03-06T22:20:47.797Z,100.00
2023-03-06T22:23:15.716Z,100.00
2023-03-06T22:25:43.796Z,100.00
2023-03-06T22:28:13.183Z,100.00
2023-03-06T22:30:41.145Z,100.00
2023-03-06T22:33:09.105Z,100.00
2023-03-06T22:35:37.166Z,100.00
2023-03-06T22:38:05.176Z,100.00
2023-03-06T22:40:33.160Z,100.00
2023-03-06T22:43:01.195Z,100.00
2023-03-06T22:45:29.106Z,100.00
2023-03-06T22:48:10.157Z,100.00
2023-03-06T22:50:38.912Z,100.00
2023-03-06T22:53:06.885Z,100.00
2023-03-06T22:55:35.239Z,100.00
2023-03-06T22:58:03.421Z,100.00
2023-03-06T23:00:31.350Z,100.00
2023-03-06T23:02:59.326Z,100.00
2023-03-06T23:05:29.368Z,100.00
2023-03-06T23:07:57.500Z,100.00
2023-03-06T23:10:25.554Z,100.00
2023-03-06T23:13:12.097Z,100.00
2023-03-06T23:16:02.491Z,100.00
2023-03-06T23:18:51.004Z,100.00
2023-03-06T23:21:37.663Z,100.00
2023-03-06T23:24:24.176Z,100.00
2023-03-06T23:26:52.169Z,100.00
2023-03-06T23:29:20.107Z,100.00
2023-03-06T23:31:48.056Z,100.00
2023-03-06T23:34:15.987Z,100.00
2023-03-06T23:36:43.945Z,100.00
2023-03-06T23:39:12.290Z,100.00
2023-03-06T23:41:40.685Z,100.00
2023-03-06T23:44:08.808Z,100.00
2023-03-06T23:46:36.791Z,100.00
2023-03-06T23:49:04.933Z,100.00
2023-03-06T23:51:33.865Z,100.00
2023-03-06T23:54:01.848Z,100.00
2023-03-06T23:56:29.965Z,100.00
2023-03-06T23:58:57.933Z,100.00
